Time,TemperatureF,DewpointF,PressureIn,WindDirection,WindDirectionDegrees,WindSpeedMPH,WindSpeedGustMPH,Humidity,HourlyPrecipIn,Conditions,Clouds,dailyrainin,SoftwareType,DateUTC
2013-03-03 00:01:00,35.0,24.0,-100.00,NW,313,-999.0,-999.0,65,-99.99,,,-99.99,,2013-03-03 07:01:00,
2013-03-03 00:11:00,41.0,21.0,-100.00,NW,313,-999.0,-999.0,44,-99.99,,,-99.99,,2013-03-03 07:11:00,
2013-03-03 00:21:00,41.0,14.0,-100.00,NW,313,-999.0,8.0,32,-99.99,,,-99.99,,2013-03-03 07:21:00,
2013-03-03 00:31:00,41.0,14.0,-100.00,WNW,302,0.0,9.0,32,-99.99,,,-99.99,,2013-03-03 07:31:00,
2013-03-03 00:42:00,41.0,13.0,-100.00,WNW,302,0.0,9.0,31,-99.99,,,-99.99,,2013-03-03 07:42:00,
2013-03-03 00:51:00,46.0,18.0,-100.00,NW,319,4.0,15.0,31,-99.99,,,-99.99,,2013-03-03 07:51:00,
2013-03-03 01:01:00,46.0,18.0,-100.00,NW,319,4.0,15.0,31,-99.99,,,-99.99,,2013-03-03 08:01:00,
2013-03-03 01:11:00,46.0,16.0,-100.00,West,279,6.0,15.0,29,-99.99,,,-99.99,,2013-03-03 08:11:00,
2013-03-03 01:21:00,48.0,17.0,-100.00,SW,228,5.0,14.0,27,-99.99,,,-99.99,,2013-03-03 08:21:00,
2013-03-03 01:31:00,48.0,17.0,-100.00,SW,228,5.0,14.0,27,-99.99,,,-99.99,,2013-03-03 08:31:00,
2013-03-03 01:41:00,48.0,17.0,-100.00,WNW,296,6.0,14.0,27,-99.99,,,-99.99,,2013-03-03 08:41:00,
2013-03-03 01:53:00,48.0,17.0,-100.00,WNW,296,6.0,6.0,28,-99.99,,,-99.99,,2013-03-03 08:53:00,
2013-03-03 02:01:00,48.0,17.0,-100.00,NNW,331,5.0,6.0,28,-99.99,,,-99.99,,2013-03-03 09:01:00,
2013-03-03 02:11:00,48.0,17.0,-100.00,NNW,331,5.0,6.0,27,-99.99,,,-99.99,,2013-03-03 09:11:00,
2013-03-03 02:21:00,48.0,18.0,-100.00,North,0,5.0,13.0,28,-99.99,,,-99.99,,2013-03-03 09:21:00,
2013-03-03 02:32:00,48.0,18.0,-100.00,North,0,5.0,11.0,28,-99.99,,,-99.99,,2013-03-03 09:32:00,
2013-03-03 02:41:00,48.0,20.0,-100.00,North,0,5.0,11.0,31,-99.99,,,-99.99,,2013-03-03 09:41:00,
2013-03-03 02:51:00,48.0,21.0,-100.00,North,0,5.0,11.0,34,-99.99,,,-99.99,,2013-03-03 09:51:00,
2013-03-03 03:01:00,48.0,21.0,-100.00,North,0,5.0,11.0,34,-99.99,,,-99.99,,2013-03-03 10:01:00,
2013-03-03 03:11:00,48.0,25.0,-100.00,North,0,5.0,11.0,39,-99.99,,,-99.99,,2013-03-03 10:11:00,
2013-03-03 03:21:00,38.0,19.0,-100.00,North,0,5.0,11.0,45,-99.99,,,-99.99,,2013-03-03 10:21:00,
2013-03-03 03:32:00,38.0,19.0,-100.00,North,0,5.0,5.0,45,-99.99,,,-99.99,,2013-03-03 10:32:00,
2013-03-03 03:42:00,38.0,19.0,-100.00,North,0,5.0,5.0,45,-99.99,,,-99.99,,2013-03-03 10:42:00,
2013-03-03 03:52:00,38.0,17.0,-100.00,North,0,5.0,5.0,42,-99.99,,,-99.99,,2013-03-03 10:52:00,
2013-03-03 04:01:00,38.0,17.0,-100.00,North,0,5.0,7.0,42,-99.99,,,-99.99,,2013-03-03 11:01:00,
2013-03-03 04:11:00,38.0,16.0,-100.00,North,0,5.0,7.0,39,-99.99,,,-99.99,,2013-03-03 11:11:00,
2013-03-03 04:21:00,38.0,12.0,-100.00,North,0,-999.0,7.0,33,-99.99,,,-99.99,,2013-03-03 11:21:00,
2013-03-03 04:32:00,38.0,12.0,-100.00,North,0,-999.0,11.0,33,-99.99,,,-99.99,,2013-03-03 11:32:00,
2013-03-03 04:42:00,38.0,12.0,-100.00,NNE,23,0.0,11.0,32,-99.99,,,-99.99,,2013-03-03 11:42:00,
2013-03-03 04:52:00,38.0,10.0,-100.00,NNE,23,0.0,9.0,30,-99.99,,,-99.99,,2013-03-03 11:52:00,
2013-03-03 05:01:00,38.0,10.0,-100.00,NNE,23,0.0,11.0,30,-99.99,,,-99.99,,2013-03-03 12:01:00,
2013-03-03 05:11:00,38.0,11.0,-100.00,NNE,23,0.0,11.0,30,-99.99,,,-99.99,,2013-03-03 12:11:00,
2013-03-03 05:21:00,46.0,18.0,-100.00,West,268,5.0,5.0,31,-99.99,,,-99.99,,2013-03-03 12:21:00,
2013-03-03 05:32:00,46.0,18.0,-100.00,North,0,7.0,15.0,31,-99.99,,,-99.99,,2013-03-03 12:32:00,
2013-03-03 05:42:00,46.0,18.0,-100.00,NNW,336,7.0,15.0,31,-99.99,,,-99.99,,2013-03-03 12:42:00,
2013-03-03 05:52:00,46.0,18.0,-100.00,NNW,336,7.0,22.0,31,-99.99,,,-99.99,,2013-03-03 12:52:00,
2013-03-03 06:01:00,46.0,18.0,-100.00,NNW,348,7.0,17.0,31,-99.99,,,-99.99,,2013-03-03 13:01:00,
2013-03-03 06:11:00,46.0,18.0,-100.00,NNW,348,7.0,17.0,31,-99.99,,,-99.99,,2013-03-03 13:11:00,
2013-03-03 06:21:00,46.0,18.0,-100.00,NNW,348,7.0,19.0,31,-99.99,,,-99.99,,2013-03-03 13:21:00,
2013-03-03 06:32:00,46.0,18.0,-100.00,NW,325,5.0,18.0,31,-99.99,,,-99.99,,2013-03-03 13:32:00,
2013-03-03 06:42:00,46.0,20.0,-100.00,NW,325,5.0,18.0,34,-99.99,,,-99.99,,2013-03-03 13:42:00,
2013-03-03 06:51:00,46.0,20.0,-100.00,NW,325,5.0,8.0,35,-99.99,,,-99.99,,2013-03-03 13:51:00,
2013-03-03 07:02:00,46.0,20.0,-100.00,NW,325,5.0,9.0,35,-99.99,,,-99.99,,2013-03-03 14:02:00,
2013-03-03 07:11:00,46.0,21.0,-100.00,NW,325,5.0,9.0,36,-99.99,,,-99.99,,2013-03-03 14:11:00,
2013-03-03 07:21:00,46.0,25.0,-100.00,NW,325,5.0,5.0,44,-99.99,,,-99.99,,2013-03-03 14:21:00,
2013-03-03 07:32:00,46.0,25.0,-100.00,WNW,296,1.0,5.0,44,-99.99,,,-99.99,,2013-03-03 14:32:00,
2013-03-03 07:42:00,41.0,18.0,-100.00,WNW,296,1.0,5.0,38,-99.99,,,-99.99,,2013-03-03 14:42:00,
2013-03-03 07:52:00,41.0,17.0,-100.00,WNW,296,1.0,8.0,37,-99.99,,,-99.99,,2013-03-03 14:52:00,
2013-03-03 08:01:00,41.0,17.0,-100.00,WNW,296,1.0,5.0,37,-99.99,,,-99.99,,2013-03-03 15:01:00,
2013-03-03 08:11:00,45.0,18.0,-100.00,ENE,63,2.0,5.0,32,-99.99,,,-99.99,,2013-03-03 15:11:00,
2013-03-03 08:22:00,45.0,15.0,-100.00,ENE,63,2.0,11.0,27,-99.99,,,-99.99,,2013-03-03 15:22:00,
2013-03-03 08:32:00,45.0,15.0,-100.00,ENE,63,2.0,12.0,27,-99.99,,,-99.99,,2013-03-03 15:32:00,
2013-03-03 08:42:00,46.0,18.0,-100.00,ENE,63,2.0,12.0,31,-99.99,,,-99.99,,2013-03-03 15:42:00,
2013-03-03 08:51:00,46.0,18.0,-100.00,SE,131,2.0,2.0,32,-99.99,,,-99.99,,2013-03-03 15:51:00,
2013-03-03 09:01:00,46.0,18.0,-100.00,SE,131,2.0,14.0,32,-99.99,,,-99.99,,2013-03-03 16:01:00,
2013-03-03 09:12:00,47.0,19.0,-100.00,SE,131,2.0,14.0,31,-99.99,,,-99.99,,2013-03-03 16:12:00,
2013-03-03 09:21:00,47.0,18.0,-100.00,SE,131,2.0,11.0,30,-99.99,,,-99.99,,2013-03-03 16:21:00,
2013-03-03 09:31:00,47.0,18.0,-100.00,SE,131,2.0,13.0,30,-99.99,,,-99.99,,2013-03-03 16:31:00,
2013-03-03 09:42:00,50.0,19.0,-100.00,SE,131,2.0,13.0,28,-99.99,,,-99.99,,2013-03-03 16:42:00,
2013-03-03 09:52:00,50.0,19.0,-100.00,North,0,3.0,13.0,28,-99.99,,,-99.99,,2013-03-03 16:52:00,
2013-03-03 10:01:00,50.0,19.0,-100.00,North,0,3.0,9.0,28,-99.99,,,-99.99,,2013-03-03 17:01:00,
2013-03-03 10:11:00,52.0,20.0,-100.00,North,0,3.0,9.0,27,-99.99,,,-99.99,,2013-03-03 17:11:00,
2013-03-03 10:22:00,53.0,20.0,-100.00,North,0,3.0,8.0,26,-99.99,,,-99.99,,2013-03-03 17:22:00,
2013-03-03 10:32:00,53.0,20.0,-100.00,SW,222,2.0,9.0,26,-99.99,,,-99.99,,2013-03-03 17:32:00,
2013-03-03 10:42:00,53.0,22.0,-100.00,SW,222,2.0,9.0,28,-99.99,,,-99.99,,2013-03-03 17:42:00,
2013-03-03 10:52:00,53.0,21.0,-100.00,SW,222,2.0,12.0,27,-99.99,,,-99.99,,2013-03-03 17:52:00,
2013-03-03 11:01:00,53.0,21.0,-100.00,ENE,74,2.0,14.0,27,-99.99,,,-99.99,,2013-03-03 18:01:00,
2013-03-03 11:11:00,52.0,19.0,-100.00,ENE,74,2.0,14.0,25,-99.99,,,-99.99,,2013-03-03 18:11:00,
2013-03-03 11:21:00,52.0,22.0,-100.00,ENE,74,2.0,17.0,29,-99.99,,,-99.99,,2013-03-03 18:21:00,
2013-03-03 11:31:00,52.0,22.0,-100.00,WSW,245,3.0,10.0,29,-99.99,,,-99.99,,2013-03-03 18:31:00,
2013-03-03 11:42:00,52.0,22.0,-100.00,WSW,245,3.0,10.0,30,-99.99,,,-99.99,,2013-03-03 18:42:00,
2013-03-03 11:52:00,52.0,21.0,-100.00,WSW,245,3.0,10.0,28,-99.99,,,-99.99,,2013-03-03 18:52:00,
2013-03-03 12:01:00,52.0,21.0,-100.00,West,274,2.0,9.0,28,-99.99,,,-99.99,,2013-03-03 19:01:00,
2013-03-03 12:11:00,51.0,20.0,-100.00,West,274,2.0,9.0,29,-99.99,,,-99.99,,2013-03-03 19:11:00,
2013-03-03 12:21:00,51.0,20.0,-100.00,West,274,2.0,12.0,29,-99.99,,,-99.99,,2013-03-03 19:21:00,
2013-03-03 12:31:00,51.0,20.0,-100.00,West,274,2.0,8.0,29,-99.99,,,-99.99,,2013-03-03 19:31:00,
2013-03-03 12:42:00,50.0,18.0,-100.00,South,177,4.0,8.0,26,-99.99,,,-99.99,,2013-03-03 19:42:00,
2013-03-03 12:52:00,50.0,18.0,-100.00,South,177,4.0,17.0,27,-99.99,,,-99.99,,2013-03-03 19:52:00,
2013-03-03 13:01:00,50.0,18.0,-100.00,WNW,291,5.0,13.0,27,-99.99,,,-99.99,,2013-03-03 20:01:00,
2013-03-03 13:11:00,51.0,20.0,-100.00,WNW,291,5.0,13.0,27,-99.99,,,-99.99,,2013-03-03 20:11:00,
2013-03-03 13:21:00,51.0,19.0,-100.00,SW,228,9.0,15.0,27,-99.99,,,-99.99,,2013-03-03 20:21:00,
2013-03-03 13:32:00,51.0,19.0,-100.00,SW,228,9.0,18.0,27,-99.99,,,-99.99,,2013-03-03 20:32:00,
2013-03-03 13:42:00,52.0,20.0,-100.00,North,353,5.0,18.0,27,-99.99,,,-99.99,,2013-03-03 20:42:00,
2013-03-03 13:52:00,52.0,21.0,-100.00,WNW,296,8.0,18.0,29,-99.99,,,-99.99,,2013-03-03 20:52:00,
2013-03-03 14:01:00,52.0,21.0,-100.00,WNW,296,8.0,12.0,29,-99.99,,,-99.99,,2013-03-03 21:01:00,
2013-03-03 14:11:00,52.0,21.0,-100.00,West,274,9.0,12.0,28,-99.99,,,-99.99,,2013-03-03 21:11:00,
2013-03-03 14:21:00,52.0,21.0,-100.00,West,274,9.0,19.0,28,-99.99,,,-99.99,,2013-03-03 21:21:00,
2013-03-03 14:32:00,52.0,21.0,-100.00,West,279,6.0,22.0,28,-99.99,,,-99.99,,2013-03-03 21:32:00,
2013-03-03 14:41:00,55.0,24.0,-100.00,West,279,6.0,22.0,29,-99.99,,,-99.99,,2013-03-03 21:41:00,
2013-03-03 14:52:00,55.0,22.0,-100.00,West,279,6.0,11.0,26,-99.99,,,-99.99,,2013-03-03 21:52:00,
2013-03-03 15:01:00,55.0,22.0,-100.00,West,279,6.0,11.0,26,-99.99,,,-99.99,,2013-03-03 22:01:00,
2013-03-03 15:11:00,55.0,22.0,-100.00,West,262,3.0,11.0,27,-99.99,,,-99.99,,2013-03-03 22:11:00,
2013-03-03 15:22:00,53.0,22.0,-100.00,West,262,3.0,16.0,29,-99.99,,,-99.99,,2013-03-03 22:22:00,
2013-03-03 15:32:00,53.0,22.0,-100.00,NNW,348,7.0,16.0,29,-99.99,,,-99.99,,2013-03-03 22:32:00,
2013-03-03 15:42:00,51.0,20.0,-100.00,NW,308,9.0,16.0,29,-99.99,,,-99.99,,2013-03-03 22:42:00,
2013-03-03 15:52:00,51.0,20.0,-100.00,WNW,291,11.0,23.0,29,-99.99,,,-99.99,,2013-03-03 22:52:00,
2013-03-03 16:01:00,51.0,20.0,-100.00,NW,313,9.0,25.0,29,-99.99,,,-99.99,,2013-03-03 23:01:00,
2013-03-03 16:11:00,49.0,19.0,-100.00,West,274,9.0,25.0,29,-99.99,,,-99.99,,2013-03-03 23:11:00,
2013-03-03 16:21:00,48.0,22.0,-100.00,North,0,10.0,19.0,34,-99.99,,,-99.99,,2013-03-03 23:21:00,
2013-03-03 16:31:00,48.0,22.0,-100.00,NW,308,9.0,18.0,34,-99.99,,,-99.99,,2013-03-03 23:31:00,
2013-03-03 16:41:00,47.0,23.0,-100.00,NW,308,8.0,18.0,38,-99.99,,,-99.99,,2013-03-03 23:41:00,
2013-03-03 16:52:00,47.0,23.0,-100.00,NNW,331,10.0,18.0,38,-99.99,,,-99.99,,2013-03-03 23:52:00,
2013-03-03 17:01:00,47.0,23.0,-100.00,West,262,9.0,18.0,38,-99.99,,,-99.99,,2013-03-04 00:01:00,
2013-03-03 17:11:00,47.0,23.0,-100.00,West,268,11.0,18.0,38,-99.99,,,-99.99,,2013-03-04 00:11:00,
2013-03-03 17:21:00,45.0,23.0,-100.00,NW,313,11.0,21.0,41,-99.99,,,-99.99,,2013-03-04 00:21:00,
2013-03-03 17:32:00,45.0,23.0,-100.00,NW,313,11.0,27.0,41,-99.99,,,-99.99,,2013-03-04 00:32:00,
2013-03-03 17:42:00,45.0,24.0,-100.00,WNW,302,9.0,27.0,43,-99.99,,,-99.99,,2013-03-04 00:42:00,
2013-03-03 17:52:00,44.0,23.0,-100.00,WNW,296,8.0,21.0,44,-99.99,,,-99.99,,2013-03-04 00:52:00,
2013-03-03 18:01:00,44.0,23.0,-100.00,WNW,302,8.0,15.0,44,-99.99,,,-99.99,,2013-03-04 01:01:00,
2013-03-03 18:11:00,44.0,23.0,-100.00,SW,234,9.0,15.0,44,-99.99,,,-99.99,,2013-03-04 01:11:00,
2013-03-03 18:21:00,44.0,25.0,-100.00,WSW,245,8.0,16.0,47,-99.99,,,-99.99,,2013-03-04 01:21:00,
2013-03-03 18:31:00,44.0,25.0,-100.00,West,279,8.0,16.0,47,-99.99,,,-99.99,,2013-03-04 01:31:00,
2013-03-03 18:42:00,43.0,26.0,-100.00,WNW,296,7.0,16.0,52,-99.99,,,-99.99,,2013-03-04 01:42:00,
2013-03-03 18:51:00,43.0,27.0,-100.00,NW,313,6.0,15.0,54,-99.99,,,-99.99,,2013-03-04 01:51:00,
2013-03-03 19:01:00,43.0,27.0,-100.00,West,279,6.0,13.0,54,-99.99,,,-99.99,,2013-03-04 02:01:00,
2013-03-03 19:11:00,42.0,26.0,-100.00,NNW,336,7.0,13.0,54,-99.99,,,-99.99,,2013-03-04 02:11:00,
2013-03-03 19:22:00,42.0,26.0,-100.00,NNW,336,7.0,13.0,54,-99.99,,,-99.99,,2013-03-04 02:22:00,
2013-03-03 19:32:00,42.0,27.0,-100.00,West,268,27.0,27.0,55,-99.99,,,-99.99,,2013-03-04 02:32:00,
2013-03-03 19:42:00,41.0,26.0,-100.00,West,268,27.0,27.0,56,-99.99,,,-99.99,,2013-03-04 02:42:00,
2013-03-03 19:52:00,41.0,28.0,-100.00,West,279,6.0,15.0,61,-99.99,,,-99.99,,2013-03-04 02:52:00,
2013-03-03 20:01:00,41.0,28.0,-100.00,West,279,6.0,10.0,61,-99.99,,,-99.99,,2013-03-04 03:01:00,
2013-03-03 20:11:00,40.0,29.0,-100.00,NW,325,8.0,10.0,65,-99.99,,,-99.99,,2013-03-04 03:11:00,
2013-03-03 20:21:00,40.0,29.0,-100.00,WNW,291,5.0,15.0,66,-99.99,,,-99.99,,2013-03-04 03:21:00,
2013-03-03 20:32:00,40.0,29.0,-100.00,WNW,302,7.0,17.0,66,-99.99,,,-99.99,,2013-03-04 03:32:00,
2013-03-03 20:42:00,39.0,28.0,-100.00,WNW,302,7.0,17.0,67,-99.99,,,-99.99,,2013-03-04 03:42:00,
2013-03-03 20:52:00,39.0,28.0,-100.00,WNW,296,4.0,17.0,67,-99.99,,,-99.99,,2013-03-04 03:52:00,
2013-03-03 21:01:00,39.0,28.0,-100.00,WNW,296,4.0,17.0,67,-99.99,,,-99.99,,2013-03-04 04:01:00,
2013-03-03 21:11:00,39.0,28.0,-100.00,WNW,296,4.0,17.0,67,-99.99,,,-99.99,,2013-03-04 04:11:00,
2013-03-03 21:22:00,39.0,29.0,-100.00,NNW,331,6.0,11.0,67,-99.99,,,-99.99,,2013-03-04 04:22:00,
2013-03-03 21:32:00,39.0,29.0,-100.00,NW,308,5.0,11.0,67,-99.99,,,-99.99,,2013-03-04 04:32:00,
2013-03-03 21:42:00,39.0,29.0,-100.00,WNW,302,7.0,11.0,67,-99.99,,,-99.99,,2013-03-04 04:42:00,
2013-03-03 21:51:00,39.0,29.0,-100.00,WNW,302,7.0,14.0,67,-99.99,,,-99.99,,2013-03-04 04:51:00,
2013-03-03 22:01:00,39.0,29.0,-100.00,NW,308,6.0,11.0,67,-99.99,,,-99.99,,2013-03-04 05:01:00,
2013-03-03 22:11:00,39.0,29.0,-100.00,NW,308,5.0,11.0,68,-99.99,,,-99.99,,2013-03-04 05:11:00,
2013-03-03 22:22:00,39.0,29.0,-100.00,NW,308,5.0,14.0,68,-99.99,,,-99.99,,2013-03-04 05:22:00,
2013-03-03 22:31:00,39.0,29.0,-100.00,NW,325,5.0,12.0,68,-99.99,,,-99.99,,2013-03-04 05:31:00,
2013-03-03 22:42:00,39.0,29.0,-100.00,NW,325,5.0,12.0,68,-99.99,,,-99.99,,2013-03-04 05:42:00,
2013-03-03 22:52:00,40.0,30.0,-100.00,NW,325,5.0,11.0,68,-99.99,,,-99.99,,2013-03-04 05:52:00,
2013-03-03 23:01:00,40.0,30.0,-100.00,NW,325,5.0,14.0,68,-99.99,,,-99.99,,2013-03-04 06:01:00,
2013-03-03 23:11:00,40.0,30.0,-100.00,NNW,331,4.0,14.0,68,-99.99,,,-99.99,,2013-03-04 06:11:00,
2013-03-03 23:21:00,40.0,30.0,-100.00,NNW,331,4.0,16.0,68,-99.99,,,-99.99,,2013-03-04 06:21:00,
2013-03-03 23:31:00,40.0,30.0,-100.00,West,268,4.0,11.0,68,-99.99,,,-99.99,,2013-03-04 06:31:00,
2013-03-03 23:42:00,40.0,30.0,-100.00,West,268,4.0,11.0,68,-99.99,,,-99.99,,2013-03-04 06:42:00,
2013-03-03 23:51:00,40.0,30.0,-100.00,WNW,296,4.0,13.0,68,-99.99,,,-99.99,,2013-03-04 06:51:00,